createdAt,value
2022-10-21T00:01:49.761Z,11.10
2022-10-21T00:04:16.282Z,11.60
2022-10-21T00:06:42.900Z,11.82
2022-10-21T00:09:09.534Z,11.82
2022-10-21T00:11:36.140Z,10.90
2022-10-21T00:14:03.045Z,11.18
2022-10-21T00:16:29.679Z,10.88
2022-10-21T00:18:56.238Z,11.80
2022-10-21T00:21:23.288Z,10.13
2022-10-21T00:23:50.277Z,12.32
2022-10-21T00:26:18.044Z,13.10
2022-10-21T00:28:44.803Z,14.18
2022-10-21T00:31:13.108Z,12.38
2022-10-21T00:33:39.975Z,11.93
2022-10-21T00:36:14.545Z,11.75
2022-10-21T00:38:43.562Z,14.35
2022-10-21T00:41:10.457Z,14.73
2022-10-21T00:43:58.684Z,14.05
2022-10-21T00:46:40.040Z,14.88
2022-10-21T00:49:14.401Z,12.50
2022-10-21T00:51:41.954Z,11.95
2022-10-21T00:54:09.746Z,12.63
2022-10-21T00:56:36.714Z,11.73
2022-10-21T00:59:05.535Z,13.27
2022-10-21T01:01:32.415Z,11.88
2022-10-21T01:04:01.278Z,15.48
2022-10-21T01:06:28.828Z,13.88
2022-10-21T01:08:57.059Z,14.00
2022-10-21T01:11:25.662Z,13.52
2022-10-21T01:14:13.089Z,12.77
2022-10-21T01:16:50.407Z,14.93
2022-10-21T01:19:53.465Z,15.27
2022-10-21T01:22:44.444Z,15.40
2022-10-21T01:25:45.221Z,14.13
2022-10-21T01:28:29.639Z,12.90
2022-10-21T01:31:00.374Z,12.73
2022-10-21T01:33:38.205Z,13.20
2022-10-21T01:36:13.291Z,13.88
2022-10-21T01:38:54.603Z,13.15
2022-10-21T01:41:28.627Z,12.65
2022-10-21T01:44:13.786Z,14.23
2022-10-21T01:46:51.504Z,14.23
2022-10-21T01:49:31.639Z,13.02
2022-10-21T01:52:00.560Z,14.48
2022-10-21T01:54:32.479Z,14.57
2022-10-21T01:57:00.957Z,12.77
2022-10-21T01:59:30.639Z,12.70
2022-10-21T02:02:00.175Z,13.63
2022-10-21T02:04:28.967Z,14.32
2022-10-21T02:06:55.576Z,14.30
2022-10-21T02:09:22.244Z,13.27
2022-10-21T02:11:51.830Z,16.70
2022-10-21T02:14:45.078Z,13.13
2022-10-21T02:17:15.137Z,12.23
2022-10-21T02:19:42.020Z,11.38
2022-10-21T02:22:11.984Z,13.38
2022-10-21T02:24:42.381Z,14.45
2022-10-21T02:27:08.970Z,13.07
2022-10-21T02:29:40.112Z,11.57
2022-10-21T02:32:20.476Z,13.13
2022-10-21T02:35:08.941Z,14.23
2022-10-21T02:38:04.681Z,12.90
2022-10-21T02:40:43.209Z,10.80
2022-10-21T02:43:15.518Z,12.38
2022-10-21T02:45:42.280Z,13.77
2022-10-21T02:48:08.769Z,13.75
2022-10-21T02:50:35.384Z,14.13
2022-10-21T02:53:02.118Z,13.13
2022-10-21T02:55:28.636Z,13.98
2022-10-21T02:57:55.147Z,11.70
2022-10-21T03:00:21.736Z,12.88
2022-10-21T03:02:48.394Z,13.95
2022-10-21T03:05:15.086Z,11.77
2022-10-21T03:07:41.802Z,15.45
2022-10-21T03:10:08.723Z,14.65
2022-10-21T03:12:35.264Z,14.05
2022-10-21T03:15:01.889Z,16.48
2022-10-21T03:17:28.378Z,14.43
2022-10-21T03:19:54.945Z,14.75
2022-10-21T03:22:21.551Z,14.00
2022-10-21T03:24:48.092Z,15.52
2022-10-21T03:27:14.661Z,12.60
2022-10-21T03:29:41.154Z,14.13
2022-10-21T03:32:07.698Z,11.40
2022-10-21T03:34:34.254Z,15.15
2022-10-21T03:37:00.809Z,13.88
2022-10-21T03:39:27.401Z,11.80
2022-10-21T03:41:53.962Z,12.23
2022-10-21T03:44:20.470Z,15.75
2022-10-21T03:46:47.059Z,13.63
2022-10-21T03:49:19.984Z,15.73
2022-10-21T03:54:14.686Z,15.00
2022-10-21T03:56:41.250Z,14.02
2022-10-21T03:59:07.752Z,12.50
2022-10-21T04:01:34.370Z,16.08
2022-10-21T04:04:01.003Z,13.32
2022-10-21T04:06:27.572Z,14.75
2022-10-21T04:08:54.368Z,13.63
2022-10-21T04:11:20.974Z,15.55
2022-10-21T04:13:47.466Z,15.20
2022-10-21T04:16:17.550Z,17.10
2022-10-21T04:18:44.113Z,18.05
2022-10-21T04:21:11.183Z,15.18
2022-10-21T04:23:38.101Z,13.82
2022-10-21T04:26:05.551Z,17.35
2022-10-21T04:28:32.911Z,13.93
2022-10-21T04:30:59.477Z,15.80
2022-10-21T04:33:26.560Z,16.08
2022-10-21T04:35:58.827Z,14.70
2022-10-21T04:38:25.654Z,15.30
2022-10-21T04:40:59.817Z,15.65
2022-10-21T04:45:54.165Z,16.08
2022-10-21T04:48:21.801Z,15.95
2022-10-21T04:50:52.799Z,17.10
2022-10-21T04:53:19.757Z,17.23
2022-10-21T04:55:53.003Z,15.82
2022-10-21T04:58:22.064Z,17.95
2022-10-21T05:00:50.438Z,15.85
2022-10-21T05:03:17.456Z,16.25
2022-10-21T05:05:44.118Z,15.23
2022-10-21T05:08:11.755Z,15.52
2022-10-21T05:10:38.595Z,17.27
2022-10-21T05:13:06.110Z,19.10
2022-10-21T05:15:33.681Z,16.83
2022-10-21T05:18:00.387Z,13.90
2022-10-21T05:20:26.954Z,18.15
2022-10-21T05:22:53.766Z,17.90
2022-10-21T05:25:20.871Z,15.63
2022-10-21T05:27:47.631Z,15.02
2022-10-21T05:30:14.366Z,15.68
2022-10-21T05:32:41.848Z,14.52
2022-10-21T05:35:08.790Z,17.35
2022-10-21T05:37:35.305Z,13.95
2022-10-21T05:40:02.122Z,15.73
2022-10-21T05:42:28.713Z,18.08
2022-10-21T05:44:55.239Z,18.17
2022-10-21T05:47:23.762Z,16.95
2022-10-21T05:49:50.769Z,18.38
2022-10-21T05:52:17.426Z,17.38
2022-10-21T05:54:44.021Z,16.00
2022-10-21T05:57:10.532Z,19.42
2022-10-21T05:59:37.081Z,17.48
2022-10-21T06:02:03.611Z,15.98
2022-10-21T06:04:31.337Z,15.40
2022-10-21T06:06:59.387Z,17.77
2022-10-21T06:09:26.000Z,18.95
2022-10-21T06:11:52.634Z,15.93
2022-10-21T06:14:20.381Z,16.40
2022-10-21T06:16:46.922Z,16.27
2022-10-21T06:19:13.534Z,18.98
2022-10-21T06:21:40.031Z,16.02
2022-10-21T06:24:06.544Z,18.27
2022-10-21T06:26:36.048Z,19.70
2022-10-21T06:29:03.833Z,16.73
2022-10-21T06:31:30.509Z,18.42
2022-10-21T06:33:57.161Z,18.88
2022-10-21T06:36:23.735Z,16.85
2022-10-21T06:38:50.282Z,17.20
2022-10-21T06:41:18.063Z,20.95
2022-10-21T06:43:44.698Z,18.10
2022-10-21T06:46:14.392Z,16.85
2022-10-21T06:48:41.503Z,16.45
2022-10-21T06:51:11.930Z,17.45
2022-10-21T06:53:39.413Z,16.02
2022-10-21T06:56:11.788Z,17.10
2022-10-21T06:58:43.149Z,16.17
2022-10-21T07:01:27.261Z,16.80
2022-10-21T07:03:59.032Z,18.90
2022-10-21T07:06:25.728Z,20.45
2022-10-21T07:08:59.533Z,18.05
2022-10-21T07:11:27.545Z,20.25
2022-10-21T07:13:54.113Z,20.60
2022-10-21T07:16:29.795Z,18.70
2022-10-21T07:18:56.668Z,19.30
2022-10-21T07:21:25.957Z,19.70
2022-10-21T07:23:56.490Z,24.10
2022-10-21T07:26:27.207Z,23.25
2022-10-21T07:28:55.498Z,26.63
2022-10-21T07:31:22.045Z,24.92
2022-10-21T07:33:49.154Z,24.85
2022-10-21T07:36:19.997Z,22.48
2022-10-21T07:38:48.067Z,20.35
2022-10-21T07:41:26.949Z,21.88
2022-10-21T07:43:54.272Z,20.85
2022-10-21T07:46:21.873Z,23.92
2022-10-21T07:48:49.002Z,21.27
2022-10-21T07:51:19.250Z,21.35
2022-10-21T07:53:45.986Z,20.90
2022-10-21T07:56:16.698Z,21.40
2022-10-21T07:58:43.899Z,20.02
2022-10-21T08:01:11.249Z,20.17
2022-10-21T08:03:38.870Z,19.92
2022-10-21T08:06:06.776Z,20.77
2022-10-21T08:08:34.120Z,23.33
2022-10-21T08:11:01.535Z,17.95
2022-10-21T08:13:28.318Z,22.55
2022-10-21T08:15:56.812Z,19.35
2022-10-21T08:18:24.482Z,18.70
2022-10-21T08:20:50.904Z,18.17
2022-10-21T08:23:20.298Z,17.67
2022-10-21T08:25:55.846Z,19.63
2022-10-21T08:28:24.938Z,18.95
2022-10-21T08:30:51.721Z,19.45
2022-10-21T08:33:18.238Z,22.15
2022-10-21T08:35:44.975Z,21.10
2022-10-21T08:38:11.794Z,19.55
2022-10-21T08:40:41.541Z,20.27
2022-10-21T08:43:10.264Z,20.10
2022-10-21T08:45:48.337Z,17.88
2022-10-21T08:48:21.894Z,20.15
2022-10-21T08:50:50.811Z,19.50
2022-10-21T08:53:35.161Z,21.15
2022-10-21T08:56:06.429Z,19.15
2022-10-21T08:58:32.971Z,21.48
2022-10-21T09:01:12.386Z,20.42
2022-10-21T09:03:47.036Z,20.42
2022-10-21T09:06:21.325Z,19.08
2022-10-21T09:09:12.094Z,18.38
2022-10-21T09:11:41.526Z,20.83
2022-10-21T09:14:27.458Z,19.48
2022-10-21T09:17:21.745Z,19.48
2022-10-21T09:20:01.734Z,19.48
2022-10-21T09:23:03.886Z,19.00
2022-10-21T09:25:30.219Z,22.45
2022-10-21T09:27:57.306Z,21.73
2022-10-21T09:30:24.941Z,19.95
2022-10-21T09:32:56.898Z,20.75
2022-10-21T09:35:36.334Z,18.60
2022-10-21T09:38:29.082Z,18.60
2022-10-21T09:41:03.595Z,24.15
2022-10-21T09:43:30.710Z,18.52
2022-10-21T09:45:57.974Z,20.75
2022-10-21T09:51:40.111Z,23.25
2022-10-21T09:54:11.623Z,23.15
2022-10-21T09:56:46.601Z,18.42
2022-10-21T09:59:14.901Z,18.27
2022-10-21T10:01:43.410Z,20.98
2022-10-21T10:04:21.023Z,21.00
2022-10-21T10:06:47.665Z,22.08
2022-10-21T10:09:25.504Z,18.70
2022-10-21T10:12:00.365Z,18.60
2022-10-21T10:14:31.463Z,20.67
2022-10-21T10:17:18.471Z,18.95
2022-10-21T10:20:04.948Z,18.60
2022-10-21T10:22:38.176Z,19.83
2022-10-21T10:25:22.733Z,18.97
2022-10-21T10:27:53.759Z,19.02
2022-10-21T10:30:22.560Z,20.17
2022-10-21T10:32:52.226Z,19.45
2022-10-21T10:35:30.840Z,19.02
2022-10-21T10:37:59.085Z,20.08
2022-10-21T10:40:42.135Z,23.13
2022-10-21T10:43:26.558Z,20.35
2022-10-21T10:48:38.543Z,17.92
2022-10-21T10:51:23.125Z,16.60
2022-10-21T10:54:17.777Z,16.98
2022-10-21T10:56:55.962Z,16.95
2022-10-21T10:59:40.706Z,17.40
2022-10-21T11:02:10.111Z,15.73
2022-10-21T11:04:45.930Z,18.75
2022-10-21T11:07:25.614Z,18.98
2022-10-21T11:09:56.725Z,18.98
2022-10-21T11:12:26.452Z,15.63
2022-10-21T11:14:58.439Z,16.50
2022-10-21T11:18:00.513Z,21.33
2022-10-21T11:20:42.520Z,15.82
2022-10-21T11:23:39.831Z,15.90
2022-10-21T11:26:19.618Z,16.95
2022-10-21T11:29:01.376Z,18.38
2022-10-21T11:32:09.697Z,15.60
2022-10-21T11:35:00.986Z,15.48
2022-10-21T11:37:46.408Z,18.15
2022-10-21T11:40:33.417Z,19.10
2022-10-21T11:43:28.470Z,19.55
2022-10-21T11:45:58.456Z,17.55
2022-10-21T11:48:41.703Z,16.63
2022-10-21T11:51:24.604Z,15.05
2022-10-21T11:54:24.842Z,13.85
2022-10-21T11:57:04.293Z,18.13
2022-10-21T11:59:53.197Z,18.13
2022-10-21T12:02:30.191Z,16.15
2022-10-21T12:05:06.059Z,16.17
2022-10-21T12:07:43.398Z,16.30
2022-10-21T12:10:27.267Z,13.93
2022-10-21T12:12:57.378Z,14.27
2022-10-21T12:15:43.351Z,13.93
2022-10-21T12:18:15.882Z,13.15
2022-10-21T12:20:45.196Z,15.82
2022-10-21T12:23:15.674Z,15.70
2022-10-21T12:26:00.396Z,14.85
2022-10-21T12:28:36.363Z,14.75
2022-10-21T12:31:33.819Z,12.48
2022-10-21T12:34:02.383Z,16.88
2022-10-21T12:36:44.402Z,16.73
2022-10-21T12:39:18.668Z,13.48
2022-10-21T12:41:47.663Z,13.45
2022-10-21T12:44:22.393Z,13.48
2022-10-21T12:46:52.723Z,15.40
2022-10-21T12:49:19.186Z,12.70
2022-10-21T12:51:57.123Z,15.23
2022-10-21T12:54:30.406Z,14.48
2022-10-21T12:57:06.437Z,14.07
2022-10-21T12:59:36.425Z,14.82
2022-10-21T13:02:05.908Z,11.98
2022-10-21T13:04:32.236Z,15.02
2022-10-21T13:07:17.005Z,13.13
2022-10-21T13:10:05.973Z,13.10
2022-10-21T13:12:33.436Z,12.27
2022-10-21T13:15:22.470Z,14.45
2022-10-21T13:17:57.621Z,12.10
2022-10-21T13:20:24.133Z,16.27
2022-10-21T13:23:01.888Z,14.57
2022-10-21T13:25:32.572Z,16.35
2022-10-21T13:28:14.215Z,16.17
2022-10-21T13:30:58.440Z,12.75
2022-10-21T13:33:27.726Z,13.95
2022-10-21T13:36:01.359Z,15.05
2022-10-21T13:38:33.955Z,16.52
2022-10-21T13:41:07.295Z,15.07
2022-10-21T13:43:40.026Z,12.52
2022-10-21T13:46:31.074Z,13.13
2022-10-21T13:49:00.742Z,13.88
2022-10-21T13:51:41.036Z,12.05
2022-10-21T13:54:13.225Z,13.07
2022-10-21T13:56:40.667Z,15.30
2022-10-21T13:59:21.225Z,12.50
2022-10-21T14:01:53.068Z,12.73
2022-10-21T14:04:25.809Z,11.35
2022-10-21T14:06:58.497Z,13.23
2022-10-21T14:09:32.897Z,12.93
2022-10-21T14:12:04.287Z,12.32
2022-10-21T14:14:33.331Z,12.82
2022-10-21T14:17:02.619Z,13.85
2022-10-21T14:19:32.590Z,17.08
2022-10-21T14:22:01.171Z,14.70
2022-10-21T14:24:37.585Z,13.82
2022-10-21T14:27:05.074Z,17.10
2022-10-21T14:29:33.867Z,13.75
2022-10-21T14:32:01.379Z,11.80
2022-10-21T14:34:33.493Z,15.07
2022-10-21T14:37:11.156Z,10.25
2022-10-21T14:39:39.467Z,12.18
2022-10-21T14:42:12.043Z,14.00
2022-10-21T14:44:41.426Z,12.05
2022-10-21T14:47:17.798Z,10.55
2022-10-21T14:49:49.650Z,13.00
2022-10-21T14:52:22.004Z,12.02
2022-10-21T14:54:57.409Z,13.88
2022-10-21T14:57:42.517Z,13.23
2022-10-21T15:00:20.123Z,14.00
2022-10-21T15:02:46.754Z,10.75
2022-10-21T15:05:38.568Z,14.10
2022-10-21T15:08:28.792Z,11.05
2022-10-21T15:10:58.623Z,13.88
2022-10-21T15:13:26.812Z,12.45
2022-10-21T15:15:57.469Z,11.88
2022-10-21T15:18:34.063Z,11.90
2022-10-21T15:21:03.197Z,11.20
2022-10-21T15:23:34.199Z,12.65
2022-10-21T15:26:05.737Z,12.07
2022-10-21T15:28:34.234Z,11.98
2022-10-21T15:31:02.588Z,11.98
2022-10-21T15:33:29.756Z,12.50
2022-10-21T15:36:04.673Z,11.52
2022-10-21T15:38:31.172Z,8.88
2022-10-21T15:40:57.948Z,12.27
2022-10-21T15:43:25.245Z,11.68
2022-10-21T15:45:51.822Z,12.30
2022-10-21T15:48:18.234Z,13.48
2022-10-21T15:50:44.748Z,14.63
2022-10-21T15:53:11.561Z,13.90
2022-10-21T15:55:38.647Z,14.85
2022-10-21T15:58:06.076Z,13.82
2022-10-21T16:00:38.527Z,13.82
2022-10-21T16:03:07.577Z,12.65
2022-10-21T16:05:34.273Z,13.10
2022-10-21T16:08:00.833Z,13.68
2022-10-21T16:10:31.142Z,15.25
2022-10-21T16:12:58.046Z,14.85
2022-10-21T16:15:25.174Z,12.23
2022-10-21T16:17:54.632Z,15.00
2022-10-21T16:20:29.155Z,13.95
2022-10-21T16:22:59.228Z,14.37
2022-10-21T16:25:28.647Z,11.68
2022-10-21T16:27:56.543Z,14.45
2022-10-21T16:30:32.273Z,14.65
2022-10-21T16:32:58.757Z,15.35
2022-10-21T16:35:26.219Z,12.25
2022-10-21T16:37:52.799Z,11.75
2022-10-21T16:40:35.295Z,11.75
2022-10-21T16:43:01.830Z,16.75
2022-10-21T16:45:30.551Z,13.18
2022-10-21T16:47:59.978Z,10.95
2022-10-21T16:50:40.828Z,12.57
2022-10-21T16:53:16.899Z,10.80
2022-10-21T16:55:43.756Z,14.10
2022-10-21T16:58:10.146Z,13.98
2022-10-21T17:00:36.608Z,12.85
2022-10-21T17:03:03.740Z,13.73
2022-10-21T17:05:30.388Z,12.27
2022-10-21T17:07:58.466Z,15.07
2022-10-21T17:10:24.856Z,12.10
2022-10-21T17:12:56.991Z,13.07
2022-10-21T17:15:23.422Z,14.52
2022-10-21T17:17:49.826Z,11.60
2022-10-21T17:20:16.330Z,12.82
2022-10-21T17:22:42.808Z,11.98
2022-10-21T17:25:12.885Z,12.52
2022-10-21T17:27:39.916Z,11.57
2022-10-21T17:30:07.237Z,12.27
2022-10-21T17:32:33.725Z,11.50
2022-10-21T17:35:00.197Z,11.70
2022-10-21T17:37:26.650Z,14.60
2022-10-21T17:39:53.045Z,13.75
2022-10-21T17:42:19.566Z,14.40
2022-10-21T17:44:46.015Z,12.25
2022-10-21T17:47:14.786Z,14.20
2022-10-21T17:49:41.769Z,12.70
2022-10-21T17:52:08.930Z,12.73
2022-10-21T17:54:36.325Z,12.20
2022-10-21T17:57:03.545Z,11.98
2022-10-21T17:59:32.569Z,13.55
2022-10-21T18:01:59.628Z,11.95
2022-10-21T18:04:26.163Z,14.80
2022-10-21T18:06:52.589Z,14.95
2022-10-21T18:09:19.254Z,12.65
2022-10-21T18:11:45.805Z,12.50
2022-10-21T18:14:12.710Z,14.20
2022-10-21T18:16:39.150Z,14.15
2022-10-21T18:19:05.578Z,13.77
2022-10-21T18:21:32.155Z,13.07
2022-10-21T18:23:58.572Z,12.02
2022-10-21T18:26:27.469Z,12.15
2022-10-21T18:28:59.605Z,11.90
2022-10-21T18:31:29.682Z,11.40
2022-10-21T18:33:58.013Z,13.48
2022-10-21T18:36:24.605Z,11.30
2022-10-21T18:38:51.269Z,12.05
2022-10-21T18:41:20.969Z,13.43
2022-10-21T18:43:53.156Z,14.25
2022-10-21T18:46:20.446Z,11.75
2022-10-21T18:48:47.453Z,10.85
2022-10-21T18:51:18.883Z,12.65
2022-10-21T18:53:49.877Z,13.55
2022-10-21T18:56:18.167Z,12.77
2022-10-21T18:58:44.823Z,13.82
2022-10-21T19:01:12.122Z,12.05
2022-10-21T19:03:38.681Z,15.32
2022-10-21T19:06:19.234Z,12.95
2022-10-21T19:08:47.011Z,12.10
2022-10-21T19:11:13.495Z,10.40
2022-10-21T19:13:39.958Z,11.63
2022-10-21T19:16:06.966Z,12.98
2022-10-21T19:18:33.389Z,11.35
2022-10-21T19:20:59.758Z,11.95
2022-10-21T19:23:27.660Z,12.20
2022-10-21T19:25:54.102Z,10.25
2022-10-21T19:28:20.774Z,9.52
2022-10-21T19:30:47.226Z,14.02
2022-10-21T19:33:13.642Z,11.32
2022-10-21T19:35:40.039Z,12.10
2022-10-21T19:38:11.619Z,12.07
2022-10-21T19:40:46.826Z,10.77
2022-10-21T19:43:13.213Z,11.20
2022-10-21T19:45:39.636Z,9.88
2022-10-21T19:48:07.043Z,11.75
2022-10-21T19:50:33.526Z,11.45
2022-10-21T19:52:59.917Z,11.25
2022-10-21T19:55:37.460Z,11.20
2022-10-21T19:58:07.394Z,10.95
2022-10-21T20:00:37.059Z,11.45
2022-10-21T20:03:05.646Z,9.88
2022-10-21T20:05:39.013Z,10.95
2022-10-21T20:08:08.489Z,11.05
2022-10-21T20:10:38.034Z,10.00
2022-10-21T20:13:08.689Z,11.02
2022-10-21T20:15:39.538Z,12.07
2022-10-21T20:18:10.367Z,12.77
2022-10-21T20:20:44.066Z,9.85
2022-10-21T20:23:14.380Z,12.13
2022-10-21T20:26:02.157Z,10.23
2022-10-21T20:28:31.591Z,10.18
2022-10-21T20:31:10.861Z,11.05
2022-10-21T20:33:44.279Z,9.80
2022-10-21T20:36:21.086Z,11.93
2022-10-21T20:38:52.026Z,11.05
2022-10-21T20:41:24.621Z,11.00
2022-10-21T20:43:56.421Z,12.00
2022-10-21T20:46:28.573Z,9.52
2022-10-21T20:48:59.784Z,9.45
2022-10-21T20:51:32.303Z,11.15
2022-10-21T20:54:05.934Z,9.10
2022-10-21T20:56:38.394Z,12.10
2022-10-21T20:59:10.409Z,8.60
2022-10-21T21:01:44.577Z,10.63
2022-10-21T21:04:17.409Z,8.82
2022-10-21T21:06:50.043Z,8.43
2022-10-21T21:09:38.108Z,8.02
2022-10-21T21:12:07.672Z,8.07
2022-10-21T21:14:34.480Z,9.02
2022-10-21T21:17:01.164Z,10.13
2022-10-21T21:19:27.786Z,8.50
2022-10-21T21:21:54.444Z,9.38
2022-10-21T21:24:21.136Z,9.35
2022-10-21T21:26:47.807Z,9.10
2022-10-21T21:29:14.743Z,9.80
2022-10-21T21:31:42.579Z,11.50
2022-10-21T21:34:09.873Z,10.93
2022-10-21T21:36:36.939Z,10.70
2022-10-21T21:39:05.048Z,9.57
2022-10-21T21:41:31.610Z,10.23
2022-10-21T21:43:58.356Z,8.98
2022-10-21T21:46:25.911Z,10.52
2022-10-21T21:48:56.024Z,9.80
2022-10-21T21:51:27.381Z,9.45
2022-10-21T21:53:55.399Z,10.98
2022-10-21T21:56:23.100Z,9.75
2022-10-21T21:58:51.636Z,11.18
2022-10-21T22:01:20.613Z,10.27
2022-10-21T22:03:49.235Z,10.30
2022-10-21T22:06:18.152Z,9.65
2022-10-21T22:08:45.578Z,10.25
2022-10-21T22:11:14.804Z,10.50
2022-10-21T22:13:41.721Z,10.48
2022-10-21T22:16:10.420Z,10.85
2022-10-21T22:18:37.454Z,10.45
2022-10-21T22:21:09.482Z,9.70
2022-10-21T22:23:37.235Z,10.20
2022-10-21T22:26:04.527Z,11.38
2022-10-21T22:28:31.376Z,11.05
2022-10-21T22:31:01.466Z,10.70
2022-10-21T22:33:29.287Z,11.18
2022-10-21T22:35:56.443Z,11.02
2022-10-21T22:38:23.209Z,10.13
2022-10-21T22:40:58.956Z,12.73
2022-10-21T22:43:26.960Z,11.05
2022-10-21T22:46:01.196Z,9.05
2022-10-21T22:48:40.759Z,9.68
2022-10-21T22:51:07.342Z,9.32
2022-10-21T22:53:35.327Z,10.60
2022-10-21T22:56:01.905Z,9.90
2022-10-21T22:58:28.612Z,9.07
2022-10-21T23:03:26.724Z,15.00
2022-10-21T23:05:53.152Z,11.13
2022-10-21T23:08:20.437Z,9.50
2022-10-21T23:10:48.875Z,10.82
2022-10-21T23:13:15.446Z,9.35
2022-10-21T23:15:42.006Z,8.68
2022-10-21T23:18:08.643Z,9.52
2022-10-21T23:20:35.260Z,10.82
2022-10-21T23:23:01.818Z,9.35
2022-10-21T23:25:28.521Z,13.48
2022-10-21T23:27:55.331Z,12.20
2022-10-21T23:30:23.758Z,9.77
2022-10-21T23:32:50.451Z,9.95
2022-10-21T23:35:17.718Z,9.23
2022-10-21T23:37:44.469Z,9.13
2022-10-21T23:40:12.269Z,9.15
2022-10-21T23:42:42.725Z,8.13
2022-10-21T23:45:11.086Z,9.02
2022-10-21T23:47:39.120Z,7.72
2022-10-21T23:50:07.267Z,9.27
2022-10-21T23:52:33.736Z,9.93
2022-10-21T23:55:00.231Z,10.85
2022-10-21T23:57:26.859Z,8.27
2022-10-21T23:59:53.422Z,8.82
